Terminal Aerodrome Forecast
Issued by NWS Cleveland, OH

Home | Current Version | Previous Version | Text Only | Print | Product List | Glossary On
Versions: 1 2 3 4 5 6 7 8 9 10 11 12 13 14 15 16 17
915
FTUS41 KCLE 220534
TAFERI
TAF
KERI 220534Z 2206/2306 19013KT P6SM SCT015 BKN060
      TEMPO 2206/2208 4SM -SHRA BR OVC015
     FM220900 23011KT P6SM BKN025
     FM221700 26016G25KT P6SM SCT025
     FM230000 22009KT P6SM FEW250=

USA.gov is the U.S. government's official web portal to all federal, state and local government web resources and services.